You are listening to:
LSZH Tower - Zurich, Switzerland

LSZH 152250Z 32006KT CAVOK 14/12 Q1018 NOSIG

If stream does not start automatically press the play button